sensor_id;sensor_type;location;lat;lon;timestamp;pressure;altitude;pressure_sealevel;temperature;humidity
47366;BME280;33105;47.964;7.982;2023-02-03T00:01:57;98143.13;;;4.33;75.47
47366;BME280;33105;47.964;7.982;2023-02-03T00:04:59;98147.25;;;4.43;74.57
47366;BME280;33105;47.964;7.982;2023-02-03T00:08:01;98138.66;;;4.40;75.19
47366;BME280;33105;47.964;7.982;2023-02-03T00:11:04;98151.72;;;4.36;74.70
47366;BME280;33105;47.964;7.982;2023-02-03T00:14:05;98151.41;;;4.46;74.32
47366;BME280;33105;47.964;7.982;2023-02-03T00:17:07;98166.63;;;4.47;73.56
47366;BME280;33105;47.964;7.982;2023-02-03T00:20:09;98168.56;;;4.53;74.00
47366;BME280;33105;47.964;7.982;2023-02-03T00:23:11;98169.50;;;4.45;74.19
47366;BME280;33105;47.964;7.982;2023-02-03T00:26:14;98167.47;;;4.48;74.12
47366;BME280;33105;47.964;7.982;2023-02-03T00:29:16;98156.56;;;4.41;74.50
47366;BME280;33105;47.964;7.982;2023-02-03T00:32:18;98157.69;;;4.32;74.55
47366;BME280;33105;47.964;7.982;2023-02-03T00:35:20;98162.44;;;4.30;75.05
47366;BME280;33105;47.964;7.982;2023-02-03T00:38:21;98170.34;;;4.46;74.35
47366;BME280;33105;47.964;7.982;2023-02-03T00:41:22;98155.97;;;4.45;74.07
47366;BME280;33105;47.964;7.982;2023-02-03T00:44:28;98164.38;;;4.51;74.72
47366;BME280;33105;47.964;7.982;2023-02-03T00:47:29;98160.97;;;4.42;72.89
47366;BME280;33105;47.964;7.982;2023-02-03T00:50:31;98157.47;;;4.48;74.06
47366;BME280;33105;47.964;7.982;2023-02-03T00:53:32;98158.50;;;4.47;73.96
47366;BME280;33105;47.964;7.982;2023-02-03T00:56:33;98160.53;;;4.60;73.78
47366;BME280;33105;47.964;7.982;2023-02-03T00:59:34;98164.56;;;4.49;74.53
47366;BME280;33105;47.964;7.982;2023-02-03T01:02:37;98154.53;;;4.43;74.43
47366;BME280;33105;47.964;7.982;2023-02-03T01:05:38;98162.81;;;4.41;74.85
47366;BME280;33105;47.964;7.982;2023-02-03T01:08:39;98160.06;;;4.56;74.17
47366;BME280;33105;47.964;7.982;2023-02-03T01:11:41;98174.16;;;4.52;73.89
47366;BME280;33105;47.964;7.982;2023-02-03T01:14:42;98176.41;;;4.48;74.93
47366;BME280;33105;47.964;7.982;2023-02-03T01:17:43;98185.56;;;4.62;73.15
47366;BME280;33105;47.964;7.982;2023-02-03T01:20:45;98185.84;;;4.52;74.09
47366;BME280;33105;47.964;7.982;2023-02-03T01:23:46;98194.50;;;4.48;74.42
47366;BME280;33105;47.964;7.982;2023-02-03T01:26:47;98185.28;;;4.57;74.00
47366;BME280;33105;47.964;7.982;2023-02-03T01:29:48;98176.16;;;4.43;74.43
47366;BME280;33105;47.964;7.982;2023-02-03T01:32:50;98179.69;;;4.58;73.96
47366;BME280;33105;47.964;7.982;2023-02-03T01:35:51;98170.44;;;4.67;73.27
47366;BME280;33105;47.964;7.982;2023-02-03T01:38:52;98181.16;;;4.46;74.89
47366;BME280;33105;47.964;7.982;2023-02-03T01:41:55;98170.34;;;4.46;73.73
47366;BME280;33105;47.964;7.982;2023-02-03T01:44:57;98180.31;;;4.60;73.64
47366;BME280;33105;47.964;7.982;2023-02-03T01:47:58;98185.09;;;4.58;73.63
47366;BME280;33105;47.964;7.982;2023-02-03T01:51:01;98172.28;;;4.67;74.17
47366;BME280;33105;47.964;7.982;2023-02-03T01:54:04;98185.03;;;4.73;74.48
47366;BME280;33105;47.964;7.982;2023-02-03T01:57:14;98179.44;;;4.74;73.64
47366;BME280;33105;47.964;7.982;2023-02-03T02:00:17;98176.78;;;4.60;74.39
47366;BME280;33105;47.964;7.982;2023-02-03T02:03:25;98172.47;;;4.65;74.07
47366;BME280;33105;47.964;7.982;2023-02-03T02:06:27;98167.34;;;4.56;75.34
47366;BME280;33105;47.964;7.982;2023-02-03T02:09:29;98149.16;;;4.50;75.65
47366;BME280;33105;47.964;7.982;2023-02-03T02:12:30;98138.16;;;4.51;74.80
47366;BME280;33105;47.964;7.982;2023-02-03T02:22:13;98117.00;;;4.40;75.35
47366;BME280;33105;47.964;7.982;2023-02-03T02:26:24;98115.84;;;4.49;75.17
47366;BME280;33105;47.964;7.982;2023-02-03T02:33:09;98114.06;;;4.56;74.36
47366;BME280;33105;47.964;7.982;2023-02-03T02:36:24;98111.75;;;4.53;74.31
47366;BME280;33105;47.964;7.982;2023-02-03T02:43:16;98119.94;;;4.60;74.39
47366;BME280;33105;47.964;7.982;2023-02-03T02:50:01;98140.41;;;4.48;74.97
47366;BME280;33105;47.964;7.982;2023-02-03T02:53:03;98137.13;;;4.52;74.35
47366;BME280;33105;47.964;7.982;2023-02-03T02:56:08;98135.53;;;4.58;74.83
47366;BME280;33105;47.964;7.982;2023-02-03T02:59:11;98118.84;;;4.54;75.02
47366;BME280;33105;47.964;7.982;2023-02-03T03:02:13;98100.66;;;4.48;74.48
47366;BME280;33105;47.964;7.982;2023-02-03T03:05:16;98098.13;;;4.47;74.85
47366;BME280;33105;47.964;7.982;2023-02-03T03:08:34;98087.06;;;4.41;75.14
47366;BME280;33105;47.964;7.982;2023-02-03T03:11:42;98061.97;;;4.33;75.09
47366;BME280;33105;47.964;7.982;2023-02-03T03:14:48;98051.16;;;4.33;74.86
47366;BME280;33105;47.964;7.982;2023-02-03T03:17:57;98057.88;;;4.37;74.80
47366;BME280;33105;47.964;7.982;2023-02-03T03:21:02;98072.94;;;4.46;74.56
47366;BME280;33105;47.964;7.982;2023-02-03T03:24:09;98079.97;;;4.26;75.30
47366;BME280;33105;47.964;7.982;2023-02-03T03:27:17;98089.78;;;4.27;75.25
47366;BME280;33105;47.964;7.982;2023-02-03T03:30:34;98091.59;;;4.20;75.96
47366;BME280;33105;47.964;7.982;2023-02-03T03:33:36;98089.31;;;4.23;74.87
47366;BME280;33105;47.964;7.982;2023-02-03T03:37:10;98085.69;;;4.31;74.86
47366;BME280;33105;47.964;7.982;2023-02-03T03:40:25;98111.25;;;4.14;74.95
47366;BME280;33105;47.964;7.982;2023-02-03T03:43:33;98106.13;;;4.04;76.24
47366;BME280;33105;47.964;7.982;2023-02-03T03:46:49;98098.09;;;4.25;75.29
47366;BME280;33105;47.964;7.982;2023-02-03T03:49:52;98094.53;;;4.25;74.84
47366;BME280;33105;47.964;7.982;2023-02-03T03:52:55;98083.47;;;4.20;75.43
47366;BME280;33105;47.964;7.982;2023-02-03T03:56:00;98090.63;;;4.27;74.97
47366;BME280;33105;47.964;7.982;2023-02-03T03:59:06;98095.94;;;4.21;75.86
47366;BME280;33105;47.964;7.982;2023-02-03T04:02:09;98094.84;;;4.15;75.38
47366;BME280;33105;47.964;7.982;2023-02-03T04:05:12;98089.19;;;3.95;76.34
47366;BME280;33105;47.964;7.982;2023-02-03T04:08:13;98088.31;;;4.09;76.20
47366;BME280;33105;47.964;7.982;2023-02-03T04:11:14;98085.34;;;4.04;76.17
47366;BME280;33105;47.964;7.982;2023-02-03T04:14:36;98080.50;;;4.15;76.21
47366;BME280;33105;47.964;7.982;2023-02-03T04:17:38;98071.81;;;4.04;76.24
47366;BME280;33105;47.964;7.982;2023-02-03T04:20:39;98064.47;;;3.98;77.08
47366;BME280;33105;47.964;7.982;2023-02-03T04:23:41;98074.91;;;4.01;76.13
47366;BME280;33105;47.964;7.982;2023-02-03T04:26:42;98087.69;;;4.07;76.65
47366;BME280;33105;47.964;7.982;2023-02-03T04:29:43;98105.84;;;3.99;76.94
47366;BME280;33105;47.964;7.982;2023-02-03T04:32:45;98123.94;;;3.98;77.32
47366;BME280;33105;47.964;7.982;2023-02-03T04:35:46;98136.81;;;3.96;77.59
47366;BME280;33105;47.964;7.982;2023-02-03T04:38:48;98148.47;;;4.12;76.93
47366;BME280;33105;47.964;7.982;2023-02-03T04:41:49;98143.41;;;4.23;76.31
47366;BME280;33105;47.964;7.982;2023-02-03T04:44:51;98123.19;;;4.19;76.88
47366;BME280;33105;47.964;7.982;2023-02-03T04:47:52;98128.88;;;4.24;76.85
47366;BME280;33105;47.964;7.982;2023-02-03T04:50:53;98124.88;;;4.20;76.76
47366;BME280;33105;47.964;7.982;2023-02-03T04:53:55;98128.31;;;4.29;76.03
47366;BME280;33105;47.964;7.982;2023-02-03T04:56:56;98126.91;;;4.33;76.45
47366;BME280;33105;47.964;7.982;2023-02-03T04:59:57;98133.31;;;4.47;76.29
47366;BME280;33105;47.964;7.982;2023-02-03T05:02:58;98120.56;;;4.40;77.22
47366;BME280;33105;47.964;7.982;2023-02-03T05:05:59;98119.44;;;4.35;77.41
47366;BME280;33105;47.964;7.982;2023-02-03T05:09:01;98106.28;;;4.32;77.41
47366;BME280;33105;47.964;7.982;2023-02-03T05:12:02;98110.69;;;4.03;79.22
47366;BME280;33105;47.964;7.982;2023-02-03T05:15:04;98104.19;;;4.13;78.93
47366;BME280;33105;47.964;7.982;2023-02-03T05:18:05;98107.88;;;4.26;78.25
47366;BME280;33105;47.964;7.982;2023-02-03T05:21:06;98114.16;;;4.12;78.68
47366;BME280;33105;47.964;7.982;2023-02-03T05:24:07;98106.50;;;4.16;78.90
47366;BME280;33105;47.964;7.982;2023-02-03T05:27:09;98108.00;;;4.18;78.83
47366;BME280;33105;47.964;7.982;2023-02-03T05:30:10;98097.56;;;4.15;79.32
47366;BME280;33105;47.964;7.982;2023-02-03T05:33:12;98093.44;;;4.04;78.89
47366;BME280;33105;47.964;7.982;2023-02-03T05:36:13;98076.75;;;4.01;79.80
47366;BME280;33105;47.964;7.982;2023-02-03T05:39:14;98066.03;;;4.07;77.35
47366;BME280;33105;47.964;7.982;2023-02-03T05:42:15;98067.34;;;3.97;79.60
47366;BME280;33105;47.964;7.982;2023-02-03T05:45:16;98083.38;;;4.13;78.94
47366;BME280;33105;47.964;7.982;2023-02-03T05:48:18;98081.69;;;4.12;79.04
47366;BME280;33105;47.964;7.982;2023-02-03T05:51:19;98086.19;;;4.20;78.94
47366;BME280;33105;47.964;7.982;2023-02-03T05:54:21;98083.75;;;4.10;79.27
47366;BME280;33105;47.964;7.982;2023-02-03T05:57:22;98091.13;;;4.16;79.19
47366;BME280;33105;47.964;7.982;2023-02-03T06:00:23;98094.09;;;4.06;79.23
47366;BME280;33105;47.964;7.982;2023-02-03T06:03:24;98092.81;;;4.02;79.30
47366;BME280;33105;47.964;7.982;2023-02-03T06:06:26;98104.66;;;4.16;78.83
47366;BME280;33105;47.964;7.982;2023-02-03T06:09:32;98102.66;;;4.25;76.71
47366;BME280;33105;47.964;7.982;2023-02-03T06:12:34;98107.88;;;4.26;76.92
47366;BME280;33105;47.964;7.982;2023-02-03T06:15:35;98102.94;;;4.30;76.84
47366;BME280;33105;47.964;7.982;2023-02-03T06:18:36;98116.63;;;4.43;75.85
47366;BME280;33105;47.964;7.982;2023-02-03T06:21:37;98106.94;;;4.34;75.90
47366;BME280;33105;47.964;7.982;2023-02-03T06:24:38;98103.28;;;4.41;76.30
47366;BME280;33105;47.964;7.982;2023-02-03T06:27:40;98102.97;;;4.51;75.57
47366;BME280;33105;47.964;7.982;2023-02-03T06:30:42;98120.03;;;4.52;76.14
47366;BME280;33105;47.964;7.982;2023-02-03T06:33:43;98143.66;;;4.58;75.95
47366;BME280;33105;47.964;7.982;2023-02-03T06:36:44;98145.34;;;4.59;77.46
47366;BME280;33105;47.964;7.982;2023-02-03T06:39:45;98142.91;;;4.49;77.30
47366;BME280;33105;47.964;7.982;2023-02-03T06:42:47;98148.06;;;4.44;77.68
47366;BME280;33105;47.964;7.982;2023-02-03T06:45:48;98167.41;;;4.41;77.08
47366;BME280;33105;47.964;7.982;2023-02-03T06:48:50;98179.56;;;4.66;76.43
47366;BME280;33105;47.964;7.982;2023-02-03T06:51:51;98177.34;;;4.55;77.45
47366;BME280;33105;47.964;7.982;2023-02-03T06:54:52;98184.16;;;4.51;77.69
47366;BME280;33105;47.964;7.982;2023-02-03T06:57:53;98169.72;;;4.44;77.72
47366;BME280;33105;47.964;7.982;2023-02-03T07:00:55;98172.81;;;4.41;78.34
47366;BME280;33105;47.964;7.982;2023-02-03T07:03:57;98180.63;;;4.36;77.28
47366;BME280;33105;47.964;7.982;2023-02-03T07:06:58;98178.09;;;4.49;77.55
47366;BME280;33105;47.964;7.982;2023-02-03T07:10:00;98162.44;;;4.30;78.31
47366;BME280;33105;47.964;7.982;2023-02-03T07:13:03;98156.09;;;4.37;78.66
47366;BME280;33105;47.964;7.982;2023-02-03T07:16:05;98135.59;;;4.14;79.72
47366;BME280;33105;47.964;7.982;2023-02-03T07:19:06;98147.25;;;4.29;80.21
47366;BME280;33105;47.964;7.982;2023-02-03T07:22:10;98149.41;;;4.19;78.55
47366;BME280;33105;47.964;7.982;2023-02-03T07:25:11;98149.84;;;4.37;79.49
47366;BME280;33105;47.964;7.982;2023-02-03T07:28:12;98144.72;;;4.42;78.44
47366;BME280;33105;47.964;7.982;2023-02-03T07:31:14;98123.63;;;4.37;78.81
47366;BME280;33105;47.964;7.982;2023-02-03T07:34:16;98117.38;;;4.37;78.63
47366;BME280;33105;47.964;7.982;2023-02-03T07:37:17;98103.75;;;4.45;76.84
47366;BME280;33105;47.964;7.982;2023-02-03T07:40:19;98098.09;;;4.25;76.77
47366;BME280;33105;47.964;7.982;2023-02-03T07:43:20;98091.47;;;4.28;77.24
47366;BME280;33105;47.964;7.982;2023-02-03T07:46:21;98083.25;;;4.36;78.42
47366;BME280;33105;47.964;7.982;2023-02-03T07:49:23;98109.53;;;4.42;77.28
47366;BME280;33105;47.964;7.982;2023-02-03T07:52:24;98123.16;;;4.34;76.41
47366;BME280;33105;47.964;7.982;2023-02-03T07:55:25;98154.94;;;4.47;76.39
47366;BME280;33105;47.964;7.982;2023-02-03T07:58:27;98161.19;;;4.62;76.65
47366;BME280;33105;47.964;7.982;2023-02-03T08:01:29;98163.81;;;4.70;76.86
47366;BME280;33105;47.964;7.982;2023-02-03T08:04:31;98129.97;;;4.81;74.33
47366;BME280;33105;47.964;7.982;2023-02-03T08:07:32;98127.34;;;4.72;74.89
47366;BME280;33105;47.964;7.982;2023-02-03T08:10:33;98125.56;;;4.79;74.57
47366;BME280;33105;47.964;7.982;2023-02-03T08:13:35;98129.97;;;4.81;74.15
47366;BME280;33105;47.964;7.982;2023-02-03T08:16:36;98114.34;;;4.83;73.67
47366;BME280;33105;47.964;7.982;2023-02-03T08:19:38;98124.25;;;4.90;74.80
47366;BME280;33105;47.964;7.982;2023-02-03T08:22:40;98111.00;;;5.02;73.30
47366;BME280;33105;47.964;7.982;2023-02-03T08:25:41;98095.66;;;4.88;73.55
47366;BME280;33105;47.964;7.982;2023-02-03T08:28:47;98104.94;;;5.00;73.33
47366;BME280;33105;47.964;7.982;2023-02-03T08:31:48;98116.41;;;5.02;73.28
47366;BME280;33105;47.964;7.982;2023-02-03T08:34:51;98113.91;;;5.00;74.06
47366;BME280;33105;47.964;7.982;2023-02-03T08:37:52;98120.16;;;5.01;72.99
47366;BME280;33105;47.964;7.982;2023-02-03T08:40:53;98135.72;;;5.13;72.90
47366;BME280;33105;47.964;7.982;2023-02-03T08:43:55;98140.31;;;5.13;72.55
47366;BME280;33105;47.964;7.982;2023-02-03T08:46:57;98143.00;;;5.34;71.72
47366;BME280;33105;47.964;7.982;2023-02-03T08:49:58;98137.03;;;5.45;71.55
47366;BME280;33105;47.964;7.982;2023-02-03T08:52:59;98156.16;;;5.16;72.27
47366;BME280;33105;47.964;7.982;2023-02-03T08:56:07;98135.44;;;5.30;73.29
47366;BME280;33105;47.964;7.982;2023-02-03T08:59:09;98143.63;;;5.36;73.89
47366;BME280;33105;47.964;7.982;2023-02-03T09:02:14;98134.00;;;5.55;72.82
47366;BME280;33105;47.964;7.982;2023-02-03T09:05:16;98143.50;;;5.72;73.14
47366;BME280;33105;47.964;7.982;2023-02-03T09:08:18;98160.69;;;6.07;69.98
47366;BME280;33105;47.964;7.982;2023-02-03T09:11:19;98159.88;;;6.13;69.76
47366;BME280;33105;47.964;7.982;2023-02-03T09:14:20;98162.09;;;6.03;69.47
47366;BME280;33105;47.964;7.982;2023-02-03T09:17:21;98159.34;;;6.31;68.37
47366;BME280;33105;47.964;7.982;2023-02-03T09:20:23;98158.53;;;6.31;68.47
47366;BME280;33105;47.964;7.982;2023-02-03T09:23:26;98168.66;;;6.16;69.96
47366;BME280;33105;47.964;7.982;2023-02-03T09:26:27;98180.25;;;6.03;68.68
47366;BME280;33105;47.964;7.982;2023-02-03T09:29:28;98183.56;;;5.98;69.41
47366;BME280;33105;47.964;7.982;2023-02-03T09:32:30;98178.50;;;5.89;70.18
47366;BME280;33105;47.964;7.982;2023-02-03T09:35:31;98177.63;;;5.88;69.28
47366;BME280;33105;47.964;7.982;2023-02-03T09:38:33;98187.97;;;5.78;70.37
47366;BME280;33105;47.964;7.982;2023-02-03T09:45:20;98191.88;;;5.90;71.43
47366;BME280;33105;47.964;7.982;2023-02-03T09:48:25;98196.53;;;6.03;69.08
47366;BME280;33105;47.964;7.982;2023-02-03T09:58:16;98212.94;;;5.67;72.43
47366;BME280;33105;47.964;7.982;2023-02-03T10:01:20;98209.38;;;5.66;74.93
47366;BME280;33105;47.964;7.982;2023-02-03T10:04:31;98213.16;;;5.72;74.80
47366;BME280;33105;47.964;7.982;2023-02-03T10:14:38;98214.34;;;5.63;76.13
47366;BME280;33105;47.964;7.982;2023-02-03T10:17:46;98222.00;;;5.80;75.42
47366;BME280;33105;47.964;7.982;2023-02-03T10:20:57;98225.03;;;5.71;76.79
47366;BME280;33105;47.964;7.982;2023-02-03T10:24:00;98210.22;;;5.67;77.48
47366;BME280;33105;47.964;7.982;2023-02-03T10:27:04;98210.31;;;5.80;75.73
47366;BME280;33105;47.964;7.982;2023-02-03T10:30:26;98215.50;;;6.31;75.59
47366;BME280;33105;47.964;7.982;2023-02-03T10:33:30;98208.34;;;6.23;73.52
47366;BME280;33105;47.964;7.982;2023-02-03T10:36:57;98198.97;;;6.26;73.00
47366;BME280;33105;47.964;7.982;2023-02-03T10:40:02;98193.72;;;6.52;73.99
47366;BME280;33105;47.964;7.982;2023-02-03T10:43:04;98202.38;;;6.75;72.87
47366;BME280;33105;47.964;7.982;2023-02-03T10:46:35;98206.91;;;6.62;71.98
47366;BME280;33105;47.964;7.982;2023-02-03T10:49:37;98203.47;;;6.40;72.71
47366;BME280;33105;47.964;7.982;2023-02-03T10:52:39;98188.78;;;6.75;72.08
47366;BME280;33105;47.964;7.982;2023-02-03T10:55:40;98184.56;;;6.25;72.46
47366;BME280;33105;47.964;7.982;2023-02-03T10:58:54;98180.28;;;6.44;71.37
47366;BME280;33105;47.964;7.982;2023-02-03T11:01:57;98157.03;;;6.76;72.40
47366;BME280;33105;47.964;7.982;2023-02-03T11:08:14;98148.13;;;7.02;70.91
47366;BME280;33105;47.964;7.982;2023-02-03T11:14:24;98161.06;;;6.87;69.95
47366;BME280;33105;47.964;7.982;2023-02-03T11:17:28;98165.66;;;6.86;70.52
47366;BME280;33105;47.964;7.982;2023-02-03T11:20:30;98188.31;;;7.13;70.02
47366;BME280;33105;47.964;7.982;2023-02-03T11:23:36;98168.94;;;6.75;70.43
47366;BME280;33105;47.964;7.982;2023-02-03T11:26:41;98180.63;;;6.28;70.46
47366;BME280;33105;47.964;7.982;2023-02-03T11:29:46;98157.16;;;6.55;70.13
47366;BME280;33105;47.964;7.982;2023-02-03T11:32:48;98151.91;;;6.46;69.81
47366;BME280;33105;47.964;7.982;2023-02-03T11:35:56;98134.53;;;6.95;69.42
47366;BME280;33105;47.964;7.982;2023-02-03T11:39:24;98134.13;;;6.92;68.96
47366;BME280;33105;47.964;7.982;2023-02-03T11:42:26;98144.41;;;7.23;68.24
47366;BME280;33105;47.964;7.982;2023-02-03T11:45:37;98149.88;;;7.49;67.38
47366;BME280;33105;47.964;7.982;2023-02-03T11:52:35;98155.06;;;7.11;68.71
47366;BME280;33105;47.964;7.982;2023-02-03T11:56:25;98135.63;;;7.14;69.26
47366;BME280;33105;47.964;7.982;2023-02-03T12:09:48;98125.38;;;7.23;66.76
47366;BME280;33105;47.964;7.982;2023-02-03T12:26:53;98093.19;;;7.33;64.47
47366;BME280;33105;47.964;7.982;2023-02-03T12:30:08;98088.13;;;6.97;66.08
47366;BME280;33105;47.964;7.982;2023-02-03T12:33:18;98080.88;;;7.17;66.70
47366;BME280;33105;47.964;7.982;2023-02-03T12:36:34;98084.63;;;7.23;65.56
47366;BME280;33105;47.964;7.982;2023-02-03T12:39:56;98084.81;;;7.21;65.53
47366;BME280;33105;47.964;7.982;2023-02-03T12:46:17;98074.97;;;6.94;66.15
47366;BME280;33105;47.964;7.982;2023-02-03T12:49:41;98092.13;;;7.01;66.37
47366;BME280;33105;47.964;7.982;2023-02-03T12:52:50;98067.22;;;6.77;65.73
47366;BME280;33105;47.964;7.982;2023-02-03T12:56:12;98066.22;;;7.11;67.04
47366;BME280;33105;47.964;7.982;2023-02-03T12:59:20;98058.03;;;6.85;66.03
47366;BME280;33105;47.964;7.982;2023-02-03T13:02:26;98069.31;;;6.95;66.76
47366;BME280;33105;47.964;7.982;2023-02-03T13:05:38;98078.09;;;6.97;67.14
47366;BME280;33105;47.964;7.982;2023-02-03T13:08:52;98069.16;;;7.16;64.88
47366;BME280;33105;47.964;7.982;2023-02-03T13:12:30;98069.75;;;6.99;65.24
47366;BME280;33105;47.964;7.982;2023-02-03T13:15:42;98067.22;;;6.84;66.19
47366;BME280;33105;47.964;7.982;2023-02-03T13:18:49;98061.75;;;6.58;67.21
47366;BME280;33105;47.964;7.982;2023-02-03T13:21:54;98052.75;;;6.57;67.49
47366;BME280;33105;47.964;7.982;2023-02-03T13:25:06;98047.31;;;6.51;68.17
47366;BME280;33105;47.964;7.982;2023-02-03T13:28:49;98048.72;;;6.33;68.62
47366;BME280;33105;47.964;7.982;2023-02-03T13:32:07;98050.38;;;6.28;68.73
47366;BME280;33105;47.964;7.982;2023-02-03T13:42:29;98063.28;;;6.26;68.64
47366;BME280;33105;47.964;7.982;2023-02-03T13:45:37;98066.81;;;6.13;67.71
47366;BME280;33105;47.964;7.982;2023-02-03T13:48:43;98060.13;;;6.16;68.79
47366;BME280;33105;47.964;7.982;2023-02-03T13:51:46;98073.50;;;6.24;68.12
47366;BME280;33105;47.964;7.982;2023-02-03T13:54:47;98075.56;;;6.15;68.81
47366;BME280;33105;47.964;7.982;2023-02-03T13:57:50;98090.06;;;5.94;68.94
47366;BME280;33105;47.964;7.982;2023-02-03T14:03:53;98067.25;;;6.17;69.70
47366;BME280;33105;47.964;7.982;2023-02-03T14:06:57;98069.72;;;6.11;69.09
47366;BME280;33105;47.964;7.982;2023-02-03T14:13:19;98091.34;;;5.98;68.98
47366;BME280;33105;47.964;7.982;2023-02-03T14:16:23;98093.00;;;5.93;70.50
47366;BME280;33105;47.964;7.982;2023-02-03T14:22:29;98092.00;;;6.07;71.21
47366;BME280;33105;47.964;7.982;2023-02-03T14:25:54;98084.53;;;5.81;71.13
47366;BME280;33105;47.964;7.982;2023-02-03T14:28:57;98081.72;;;5.96;71.12
47366;BME280;33105;47.964;7.982;2023-02-03T14:32:00;98087.28;;;5.88;71.15
47366;BME280;33105;47.964;7.982;2023-02-03T14:35:15;98082.53;;;5.90;71.14
47366;BME280;33105;47.964;7.982;2023-02-03T14:38:18;98082.34;;;5.63;71.02
47366;BME280;33105;47.964;7.982;2023-02-03T14:45:32;98065.78;;;5.86;71.64
47366;BME280;33105;47.964;7.982;2023-02-03T14:58:24;98060.22;;;5.94;70.90
47366;BME280;33105;47.964;7.982;2023-02-03T15:04:35;98071.63;;;5.83;70.96
47366;BME280;33105;47.964;7.982;2023-02-03T15:07:38;98076.28;;;5.96;70.10
47366;BME280;33105;47.964;7.982;2023-02-03T15:10:44;98080.75;;;5.75;71.11
47366;BME280;33105;47.964;7.982;2023-02-03T15:13:46;98090.56;;;5.76;71.96
47366;BME280;33105;47.964;7.982;2023-02-03T15:19:55;98056.06;;;5.64;71.89
47366;BME280;33105;47.964;7.982;2023-02-03T15:22:57;98064.59;;;5.61;72.43
47366;BME280;33105;47.964;7.982;2023-02-03T15:26:02;98072.00;;;5.80;71.03
47366;BME280;33105;47.964;7.982;2023-02-03T15:29:03;98073.56;;;5.61;71.41
47366;BME280;33105;47.964;7.982;2023-02-03T15:32:18;98069.25;;;5.73;71.48
47366;BME280;33105;47.964;7.982;2023-02-03T15:35:23;98088.69;;;5.77;70.81
47366;BME280;33105;47.964;7.982;2023-02-03T15:38:30;98105.78;;;5.77;70.68
47366;BME280;33105;47.964;7.982;2023-02-03T15:41:34;98107.41;;;5.72;71.59
47366;BME280;33105;47.964;7.982;2023-02-03T15:44:47;98108.69;;;5.48;72.37
47366;BME280;33105;47.964;7.982;2023-02-03T15:47:56;98120.25;;;5.57;72.98
47366;BME280;33105;47.964;7.982;2023-02-03T15:51:07;98115.16;;;5.47;72.48
47366;BME280;33105;47.964;7.982;2023-02-03T15:54:23;98113.13;;;5.56;72.70
47366;BME280;33105;47.964;7.982;2023-02-03T15:57:32;98123.41;;;5.60;71.32
47366;BME280;33105;47.964;7.982;2023-02-03T16:00:37;98102.50;;;5.54;72.61
47366;BME280;33105;47.964;7.982;2023-02-03T16:03:49;98105.25;;;5.61;72.48
47366;BME280;33105;47.964;7.982;2023-02-03T16:06:54;98114.19;;;5.55;73.85
47366;BME280;33105;47.964;7.982;2023-02-03T16:10:00;98107.47;;;5.51;73.26
47366;BME280;33105;47.964;7.982;2023-02-03T16:13:22;98109.66;;;5.62;72.72
47366;BME280;33105;47.964;7.982;2023-02-03T16:16:27;98101.19;;;5.78;73.15
47366;BME280;33105;47.964;7.982;2023-02-03T16:19:30;98106.16;;;5.68;73.11
47366;BME280;33105;47.964;7.982;2023-02-03T16:22:42;98099.44;;;5.64;72.69
47366;BME280;33105;47.964;7.982;2023-02-03T16:29:13;98108.16;;;5.59;72.83
47366;BME280;33105;47.964;7.982;2023-02-03T16:32:33;98099.31;;;5.44;74.45
47366;BME280;33105;47.964;7.982;2023-02-03T16:35:55;98104.94;;;5.77;72.43
47366;BME280;33105;47.964;7.982;2023-02-03T16:39:15;98092.50;;;5.55;72.84
47366;BME280;33105;47.964;7.982;2023-02-03T16:42:37;98095.75;;;5.43;73.11
47366;BME280;33105;47.964;7.982;2023-02-03T16:45:59;98093.63;;;5.67;72.08
47366;BME280;33105;47.964;7.982;2023-02-03T16:49:19;98095.59;;;5.52;72.56
47366;BME280;33105;47.964;7.982;2023-02-03T16:52:38;98107.97;;;5.61;73.01
47366;BME280;33105;47.964;7.982;2023-02-03T16:55:41;98100.09;;;5.66;72.90
47366;BME280;33105;47.964;7.982;2023-02-03T16:58:43;98099.34;;;5.51;71.87
47366;BME280;33105;47.964;7.982;2023-02-03T17:01:45;98102.34;;;5.62;71.55
47366;BME280;33105;47.964;7.982;2023-02-03T17:04:46;98101.06;;;5.58;71.33
47366;BME280;33105;47.964;7.982;2023-02-03T17:07:47;98098.75;;;5.55;71.88
47366;BME280;33105;47.964;7.982;2023-02-03T17:10:50;98098.94;;;5.54;72.24
47366;BME280;33105;47.964;7.982;2023-02-03T17:13:51;98093.91;;;5.51;72.33
47366;BME280;33105;47.964;7.982;2023-02-03T17:16:53;98097.78;;;5.63;71.86
47366;BME280;33105;47.964;7.982;2023-02-03T17:19:55;98106.38;;;5.73;71.60
47366;BME280;33105;47.964;7.982;2023-02-03T17:22:57;98109.25;;;5.65;71.85
47366;BME280;33105;47.964;7.982;2023-02-03T17:25:59;98113.25;;;5.69;72.64
47366;BME280;33105;47.964;7.982;2023-02-03T17:29:01;98123.97;;;5.56;73.63
47366;BME280;33105;47.964;7.982;2023-02-03T17:32:03;98119.06;;;5.66;73.21
47366;BME280;33105;47.964;7.982;2023-02-03T17:35:05;98127.03;;;5.74;73.21
47366;BME280;33105;47.964;7.982;2023-02-03T17:38:08;98130.13;;;5.71;74.55
47366;BME280;33105;47.964;7.982;2023-02-03T17:41:14;98129.31;;;5.42;75.49
47366;BME280;33105;47.964;7.982;2023-02-03T17:44:16;98140.00;;;5.51;75.69
47366;BME280;33105;47.964;7.982;2023-02-03T17:47:17;98137.06;;;5.24;77.60
47366;BME280;33105;47.964;7.982;2023-02-03T17:50:19;98140.78;;;5.23;78.13
47366;BME280;33105;47.964;7.982;2023-02-03T17:53:20;98139.00;;;5.30;78.32
47366;BME280;33105;47.964;7.982;2023-02-03T17:56:23;98138.59;;;5.33;79.03
47366;BME280;33105;47.964;7.982;2023-02-03T17:59:25;98134.34;;;5.03;79.68
47366;BME280;33105;47.964;7.982;2023-02-03T18:02:26;98135.72;;;4.92;81.28
47366;BME280;33105;47.964;7.982;2023-02-03T18:05:28;98116.75;;;4.92;81.80
47366;BME280;33105;47.964;7.982;2023-02-03T18:08:30;98116.69;;;4.86;81.36
47366;BME280;33105;47.964;7.982;2023-02-03T18:11:33;98123.44;;;4.96;81.34
47366;BME280;33105;47.964;7.982;2023-02-03T18:14:37;98118.38;;;4.87;81.07
47366;BME280;33105;47.964;7.982;2023-02-03T18:17:38;98122.03;;;5.00;80.83
47366;BME280;33105;47.964;7.982;2023-02-03T18:20:40;98124.72;;;5.22;80.12
47366;BME280;33105;47.964;7.982;2023-02-03T18:23:42;98125.25;;;5.32;79.74
47366;BME280;33105;47.964;7.982;2023-02-03T18:26:47;98131.59;;;5.18;80.41